Latest Weather Observations for Griffith

IDN60801

Issued at 7:35 am EST Wednesday 1 October 2014 (issued every 30 minutes, with the page automatically refreshed every 10 minutes)

About weather observations | Map of weather stations | Latest weather observations for NSW | Other Formats
Station Details ID: 075041 Name: GRIFFITH AIRPORT AWS Lat: -34.25 Lon: 146.07 Height: 134.0 m
Data from the previous 72 hours. | See also: Recent months at Griffith
Date/Time
EST
Temp
°C
App
Temp
°C
Dew
Point
Rel
Hum
%
Delta-T
°C
Wind Press
QNH
hPa
Press
MSL
hPa
Rain
since 9 am
mm
Dir
 
Spd
km/h
Gust
km/h
Spd
kts
Gust
kts
01/07:30am 9.3 4.0 3.1 65 2.7 SW 20 26 11 14 1023.2 1023.3 0.0
01/07:00am 8.0 3.2 2.5 68 2.3 WSW 17 22 9 12 1022.9 1023.0 0.0
01/06:30am 6.9 2.8 2.2 72 1.9 WSW 13 17 7 9 1022.6 1022.7 0.0
01/06:00am 6.7 2.5 1.8 71 2.0 SW 13 17 7 9 1022.2 1022.3 0.0
01/05:30am 7.2 2.6 1.5 67 2.3 SW 15 20 8 11 1021.6 1021.6 0.0
01/05:00am 7.9 2.5 1.5 64 2.6 SW 19 26 10 14 1021.0 1021.0 0.0
01/04:30am 8.3 2.9 1.5 62 2.8 SW 19 24 10 13 1020.6 1020.6 0.0
01/04:00am 8.5 3.5 1.6 62 2.8 WSW 17 22 9 12 1020.3 1020.3 0.0
01/03:30am 9.3 3.4 1.5 58 3.2 SW 22 28 12 15 1019.8 1019.8 0.0
01/03:00am 9.2 3.9 1.9 60 3.1 WSW 19 24 10 13 1019.4 1019.4 0.0
01/02:30am 9.6 5.0 1.8 58 3.3 W 15 17 8 9 1019.0 1019.0 0.0
01/02:00am 10.2 5.7 2.1 57 3.4 WSW 15 22 8 12 1018.8 1018.8 0.0
01/01:30am 10.8 5.8 1.1 51 4.1 WSW 17 22 9 12 1018.6 1018.6 0.0
01/01:00am 11.8 6.3 1.7 50 4.3 SW 20 30 11 16 1018.5 1018.5 0.0
01/12:30am 12.2 6.9 3.2 54 4.0 SW 20 28 11 15 1018.2 1018.2 0.0
01/12:00am 11.9 8.2 4.4 60 3.4 SW 13 20 7 11 1017.8 1017.8 0.0
 
Date/Time
EST
Temp
°C
App
Temp
°C
Dew
Point
Rel
Hum
%
Delta-T
°C
Wind Press
QNH
hPa
Press
MSL
hPa
Rain
since 9 am
mm
Dir
 
Spd
km/h
Gust
km/h
Spd
kts
Gust
kts
30/11:30pm 13.0 9.3 4.2 55 4.0 SW 13 19 7 10 1017.3 1017.3 0.0
30/11:00pm 13.8 8.8 4.4 53 4.3 SW 20 28 11 15 1016.8 1016.8 0.0
30/10:30pm 14.4 8.2 4.4 51 4.6 SW 26 37 14 20 1016.5 1016.5 0.0
30/10:00pm 14.9 8.5 5.1 52 4.6 SW 28 41 15 22 1016.1 1016.1 0.0
30/09:32pm 15.6 7.3 6.1 53 4.6 SW 39 57 21 31 1015.5 1015.5 0.0
30/09:30pm 15.6 8.1 6.3 54 4.5 SW 35 50 19 27 1015.4 1015.4 0.0
30/09:00pm 16.5 8.1 7.4 55 4.6 SW 41 52 22 28 1014.7 1014.7 0.0
30/08:41pm 17.5 10.2 7.0 50 5.3 SSW 35 54 19 29 1013.9 1013.9 0.0
30/08:30pm 18.3 9.9 7.4 49 5.5 SSW 41 57 22 31 1013.3 1013.3 0.0
30/08:04pm 20.4 10.7 5.6 38 7.4 SW 46 67 25 36 1012.2 1012.2 0.0
30/08:03pm 20.7 10.9 5.1 36 7.7 SW 46 56 25 30 1012.2 1012.2 0.0
30/08:00pm 21.4 9.9 4.5 33 8.3 WSW 54 72 29 39 1012.0 1012.0 0.0
30/07:59pm 22.0 15.3 3.6 30 8.9 W 28 72 15 39 1011.7 1011.7 0.0
30/07:30pm 23.1 17.2 1.4 24 10.2 W 22 32 12 17 1010.7 1010.7 0.0
30/07:00pm 23.6 17.2 0.7 22 10.6 W 24 32 13 17 1010.3 1010.3 0.0
30/06:30pm 24.5 17.2 0.1 20 11.3 W 28 37 15 20 1010.2 1010.2 0.0
30/06:00pm 25.1 17.9 0.6 20 11.5 W 28 37 15 20 1010.0 1010.0 0.0
30/05:30pm 26.4 18.3 -0.6 17 12.5 W 32 43 17 23 1009.5 1009.4 0.0
30/05:20pm 26.8 18.7 -0.3 17 12.7 W 32 50 17 27 1009.5 1009.4 0.0
30/05:00pm 27.4 18.6 -1.5 15 13.3 W 35 46 19 25 1009.4 1009.3 0.0
30/04:30pm 28.6 19.4 -1.5 14 13.9 WNW 37 61 20 33 1009.3 1009.2 0.0
30/04:22pm 28.4 18.7 -2.6 13 14.1 WNW 39 61 21 33 1009.2 1009.1 0.0
30/04:00pm 28.5 18.3 -3.6 12 14.3 W 41 56 22 30 1009.3 1009.2 0.0
30/03:30pm 28.8 19.2 -4.6 11 14.7 WNW 37 52 20 28 1009.3 1009.2 0.0
30/03:25pm 29.1 20.3 -4.3 11 14.8 WNW 33 52 18 28 1009.4 1009.3 0.0
30/03:00pm 28.7 18.7 -4.6 11 14.6 WNW 39 54 21 29 1009.8 1009.8 0.0
30/02:58pm 28.7 19.5 -4.6 11 14.6 WNW 35 54 19 29 1009.7 1009.7 0.0
30/02:30pm 28.6 20.4 -3.6 12 14.4 WNW 30 43 16 23 1010.0 1010.0 0.0
30/02:19pm 28.8 20.4 -2.3 13 14.2 WNW 32 50 17 27 1010.4 1010.4 0.0
30/02:00pm 28.6 21.0 -2.5 13 14.2 WNW 28 39 15 21 1010.7 1010.7 0.0
30/01:31pm 28.3 20.6 -2.7 13 14.0 W 28 48 15 26 1011.3 1011.3 0.0
30/01:30pm 28.5 21.4 -1.6 14 13.9 W 26 35 14 19 1011.3 1011.3 0.0
30/01:00pm 27.3 19.0 -1.6 15 13.2 W 32 43 17 23 1011.9 1011.9 0.0
30/12:40pm 27.5 19.7 -0.5 16 13.1 W 30 48 16 26 1012.2 1012.2 0.0
30/12:30pm 27.3 18.6 -0.7 16 13.0 W 35 44 19 24 1012.6 1012.6 0.0
30/12:13pm 27.2 20.0 0.8 18 12.6 WNW 28 46 15 25 1012.8 1012.8 0.0
30/12:00pm 26.1 18.7 2.1 21 11.6 WNW 30 43 16 23 1013.1 1013.1 0.0
30/11:30am 25.9 19.6 3.8 24 11.0 W 26 39 14 21 1013.5 1013.5 0.0
30/11:00am 25.0 18.9 4.7 27 10.2 W 26 41 14 22 1014.1 1014.1 0.0
30/10:30am 24.3 18.4 5.6 30 9.6 W 26 32 14 17 1014.2 1014.2 0.0
30/10:00am 23.4 18.5 5.3 31 9.1 W 20 30 11 16 1014.3 1014.3 0.0
30/09:30am 22.8 17.2 5.3 32 8.8 W 24 33 13 18 1014.4 1014.4 0.0
30/09:00am 22.4 18.9 7.0 37 8.0 W 15 20 8 11 1014.1 1014.1 0.0
30/08:30am 20.3 17.8 8.0 45 6.4 WNW 11 15 6 8 1014.1 1014.1 0.0
30/08:00am 18.6 16.3 7.4 48 5.7 NNW 9 11 5 6 1014.1 1014.1 0.0
30/07:30am 15.3 14.2 8.3 63 3.6 WNW 4 6 2 3 1013.9 1013.9 0.0
30/07:00am 12.8 11.6 8.1 73 2.3 SW 4 7 2 4 1013.6 1013.6 0.0
30/06:30am 9.7 7.6 6.8 82 1.4 SSW 7 9 4 5 1013.4 1013.4 0.0
30/06:00am 9.3 7.1 6.0 80 1.5 SSW 7 7 4 4 1013.1 1013.1 0.0
30/05:30am 10.6 9.1 6.6 76 1.9 SW 4 6 2 3 1012.8 1012.8 0.0
30/05:00am 9.0 8.2 6.3 83 1.3 CALM 0 0 0 0 1012.6 1012.6 0.0
30/04:30am 9.0 8.0 5.7 80 1.5 CALM 0 0 0 0 1012.3 1012.3 0.0
30/04:00am 10.5 9.7 6.3 75 2.0 CALM 0 0 0 0 1012.4 1012.4 0.0
30/03:30am 10.0 9.0 5.4 73 2.1 CALM 0 0 0 0 1012.3 1012.3 0.0
30/03:00am 11.9 10.4 6.6 70 2.5 WSW 4 7 2 4 1012.2 1012.2 0.0
30/02:30am 11.4 10.7 6.9 74 2.2 CALM 0 0 0 0 1012.6 1012.6 0.0
30/02:00am 11.7 11.0 7.0 73 2.3 CALM 0 0 0 0 1012.6 1012.6 0.0
30/01:30am 13.1 10.8 5.8 61 3.5 E 7 9 4 5 1013.0 1013.0 0.0
30/01:00am 11.6 10.7 5.9 68 2.7 CALM 0 0 0 0 1013.2 1013.2 0.0
30/12:30am 12.6 10.9 6.0 64 3.1 S 4 7 2 4 1013.3 1013.3 0.0
30/12:00am 14.1 13.1 5.7 57 4.0 CALM 0 0 0 0 1013.5 1013.5 0.0
 
Date/Time
EST
Temp
°C
App
Temp
°C
Dew
Point
Rel
Hum
%
Delta-T
°C
Wind Press
QNH
hPa
Press
MSL
hPa
Rain
since 9 am
mm
Dir
 
Spd
km/h
Gust
km/h
Spd
kts
Gust
kts
29/11:30pm 14.0 11.1 4.6 53 4.4 E 9 11 5 6 1013.7 1013.7 0.0
29/11:00pm 14.8 12.0 5.1 52 4.6 SE 9 11 5 6 1014.0 1014.0 0.0
29/10:30pm 14.7 11.6 5.5 54 4.4 ESE 11 13 6 7 1014.0 1014.0 0.0
29/10:00pm 14.5 11.2 6.3 58 4.0 ESE 13 13 7 7 1014.1 1014.1 0.0
29/09:30pm 15.2 12.1 5.7 53 4.6 ESE 11 15 6 8 1014.0 1014.0 0.0
29/09:00pm 15.3 13.1 5.2 51 4.8 SSE 6 7 3 4 1014.0 1014.0 0.0
29/08:30pm 17.2 14.1 3.8 41 6.3 SSE 9 13 5 7 1014.0 1014.0 0.0
29/08:00pm 16.4 14.0 5.4 48 5.3 SSE 7 9 4 5 1013.8 1013.8 0.0
29/07:30pm 16.4 13.7 5.7 49 5.2 SSE 9 11 5 6 1013.7 1013.7 0.0
29/07:00pm 18.4 15.5 4.6 40 6.6 S 9 11 5 6 1013.5 1013.5 0.0
29/06:30pm 21.2 18.2 3.9 32 8.4 SSW 9 9 5 5 1013.3 1013.3 0.0
29/06:00pm 23.3 20.3 4.3 29 9.4 SSW 9 11 5 6 1013.2 1013.2 0.0
29/05:30pm 24.7 21.4 4.5 27 10.1 SW 11 15 6 8 1013.2 1013.2 0.0
29/05:00pm 25.3 21.2 4.4 26 10.5 WSW 15 19 8 10 1013.0 1013.0 0.0
29/04:30pm 25.6 21.5 4.1 25 10.8 WSW 15 20 8 11 1013.1 1013.1 0.0
29/04:00pm 25.4 21.2 4.0 25 10.7 W 15 20 8 11 1013.2 1013.2 0.0
29/03:30pm 25.5 22.6 4.6 26 10.6 W 9 15 5 8 1013.2 1013.2 0.0
29/03:00pm 25.5 21.3 4.0 25 10.8 W 15 24 8 13 1013.3 1013.3 0.0
29/02:30pm 24.8 20.6 4.0 26 10.4 W 15 26 8 14 1013.5 1013.5 0.0
29/02:00pm 24.5 21.6 4.8 28 9.9 NW 9 17 5 9 1013.7 1013.7 0.0
29/01:30pm 23.9 20.0 3.2 26 10.1 NW 13 20 7 11 1014.1 1014.1 0.0
29/01:00pm 23.2 19.6 3.2 27 9.7 WNW 11 20 6 11 1014.6 1014.6 0.0
29/12:30pm 22.9 18.9 2.9 27 9.6 NNW 13 20 7 11 1014.9 1014.9 0.0
29/12:00pm 23.0 20.0 4.0 29 9.3 NW 9 20 5 11 1015.4 1015.4 0.0
29/11:30am 21.9 19.5 4.5 32 8.6 N 6 9 3 5 1015.8 1015.7 0.0
29/11:00am 20.6 17.6 4.2 34 8.0 SW 9 15 5 8 1016.0 1016.0 0.0
29/10:30am 19.8 17.3 3.5 34 7.8 SSW 6 11 3 6 1016.2 1016.2 0.0
29/10:00am 19.0 15.9 3.6 36 7.3 WSW 9 19 5 10 1016.4 1016.4 0.0
29/09:30am 18.7 15.0 4.5 39 6.8 SSW 13 22 7 12 1016.5 1016.5 0.0
29/09:00am 18.1 14.4 4.3 40 6.6 S 13 20 7 11 1016.5 1016.5 0.0
29/08:30am 17.2 13.0 3.8 41 6.3 SSW 15 20 8 11 1016.4 1016.4 0.0
29/08:00am 16.5 12.8 4.2 44 5.8 SSW 13 19 7 10 1016.3 1016.3 0.0
29/07:30am 15.6 13.4 5.2 50 5.0 SW 6 9 3 5 1016.0 1016.0 0.0
29/07:00am 14.5 13.3 6.3 58 4.0 W 2 6 1 3 1015.9 1015.9 0.0
29/06:30am 13.5 12.7 6.4 62 3.4 CALM 0 7 0 4 1015.6 1015.6 0.0
29/06:00am 13.3 10.3 6.2 62 3.4 SW 11 20 6 11 1015.2 1015.2 0.0
29/05:30am 13.9 9.8 6.0 59 3.8 WSW 17 20 9 11 1014.8 1014.8 0.0
29/05:00am 14.4 11.2 5.2 54 4.3 WSW 11 20 6 11 1014.3 1014.3 0.0
29/04:30am 14.9 11.4 3.4 46 5.3 NW 11 15 6 8 1013.7 1013.7 0.0
29/04:00am 15.7 11.7 2.8 42 5.9 WNW 13 15 7 8 1013.2 1013.2 0.0
29/03:30am 18.2 11.7 2.5 35 7.2 WNW 26 35 14 19 1012.9 1012.9 0.0
29/03:12am 17.6 9.4 2.8 37 6.8 W 35 48 19 26 1012.7 1012.7 0.0
29/03:00am 19.4 13.9 1.9 31 8.1 NNW 20 28 11 15 1011.4 1011.4 0.0
29/02:30am 20.2 14.4 2.1 30 8.4 NNW 22 28 12 15 1011.5 1011.5 0.0
29/02:00am 20.7 14.5 2.0 29 8.7 N 24 32 13 17 1011.6 1011.6 0.0
29/01:30am 21.2 14.6 2.0 28 9.0 N 26 33 14 18 1011.9 1011.9 0.0
29/01:00am 21.0 14.8 2.3 29 8.8 N 24 33 13 18 1012.3 1012.3 0.0
29/12:30am 21.1 14.9 2.4 29 8.8 N 24 35 13 19 1012.5 1012.5 0.0
29/12:00am 20.8 15.4 2.6 30 8.6 NNW 20 30 11 16 1012.7 1012.7 0.0
 
Date/Time
EST
Temp
°C
App
Temp
°C
Dew
Point
Rel
Hum
%
Delta-T
°C
Wind Press
QNH
hPa
Press
MSL
hPa
Rain
since 9 am
mm
Dir
 
Spd
km/h
Gust
km/h
Spd
kts
Gust
kts
28/11:30pm 16.5 13.1 4.2 44 5.8 NNW 11 13 6 7 1013.0 1013.0 0.0
28/11:00pm 15.8 12.9 4.8 48 5.2 W 9 9 5 5 1013.4 1013.4 0.0
28/10:30pm 16.3 13.5 5.0 47 5.4 NW 9 15 5 8 1013.4 1013.4 0.0
28/10:00pm 16.4 14.3 5.7 49 5.2 W 6 7 3 4 1013.3 1013.3 0.0
28/09:30pm 17.3 14.4 4.6 43 6.1 NNW 9 13 5 7 1013.3 1013.3 0.0
28/09:00pm 19.4 15.5 3.2 34 7.6 N 13 19 7 10 1013.3 1013.3 0.0
28/08:30pm 20.9 16.5 2.7 30 8.6 N 15 19 8 10 1013.1 1013.1 0.0
28/08:00pm 22.2 17.3 2.3 27 9.4 N 17 22 9 12 1013.0 1013.0 0.0
28/07:30pm 22.4 17.0 2.5 27 9.5 N 20 24 11 13 1012.5 1012.5 0.0
28/07:00pm 21.0 16.7 3.2 31 8.5 N 15 17 8 9 1012.8 1012.8 0.0
28/06:30pm 21.5 17.2 3.2 30 8.8 N 15 17 8 9 1012.9 1012.9 0.0
28/06:00pm 24.6 20.6 2.7 24 10.6 NNW 13 17 7 9 1013.0 1013.0 0.0
28/05:30pm 26.6 21.3 1.8 20 12.0 NW 19 22 10 12 1013.1 1013.1 0.0
28/05:00pm 27.3 20.8 0.1 17 12.8 NNW 24 33 13 18 1013.0 1013.0 0.0
28/04:30pm 27.7 20.5 0.5 17 13.0 NNW 28 37 15 20 1013.0 1013.0 0.0
28/04:00pm 27.6 19.7 1.2 18 12.7 NNW 32 46 17 25 1012.2 1012.2 0.0
28/03:30pm 27.8 19.9 1.3 18 12.8 N 32 43 17 23 1012.3 1012.3 0.0
28/03:00pm 27.9 20.1 1.4 18 12.9 N 32 41 17 22 1012.8 1012.8 0.0
28/02:30pm 27.8 19.9 1.3 18 12.8 N 32 46 17 25 1013.4 1013.4 0.0
28/02:00pm 27.7 20.1 2.7 20 12.4 N 32 48 17 26 1014.1 1014.1 0.0
28/01:30pm 27.9 21.2 3.6 21 12.3 NNW 28 39 15 21 1014.9 1014.9 0.0
28/01:00pm 27.1 20.4 3.6 22 11.8 NNW 28 43 15 23 1015.6 1015.6 0.0
28/12:30pm 26.8 19.9 4.6 24 11.3 N 30 43 16 23 1016.5 1016.5 0.0
28/12:00pm 26.1 19.3 5.1 26 10.7 NNW 30 44 16 24 1016.9 1016.9 0.0
28/11:44am 26.1 19.6 4.6 25 10.9 NNW 28 46 15 25 1017.4 1017.4 0.0
28/11:30am 25.6 19.3 5.8 28 10.2 NNW 28 37 15 20 1017.8 1017.8 0.0
28/11:00am 25.5 18.9 6.2 29 10.0 N 30 39 16 21 1018.4 1018.4 0.0
28/10:30am 24.2 17.6 6.0 31 9.4 NNW 30 39 16 21 1019.0 1019.0 0.0
28/10:00am 23.6 17.6 5.5 31 9.2 N 26 33 14 18 1019.4 1019.4 0.0
28/09:30am 23.2 17.1 6.5 34 8.6 N 28 35 15 19 1019.8 1019.8 0.0
28/09:00am 21.5 15.7 6.2 37 7.7 N 26 35 14 19 1019.8 1019.8 0.0
28/08:30am 20.1 14.6 6.1 40 7.0 N 24 33 13 18 1019.9 1019.9 0.0
28/08:00am 18.7 14.1 6.5 45 6.1 N 20 32 11 17 1019.9 1019.9 0.0

Other Formats:

Comma delimited format used in spreadsheet applications
http://www.bom.gov.au/fwo/IDN60801/IDN60801.95704.axf

JavaScript Object Notation format (JSON) in row-major order
http://www.bom.gov.au/fwo/IDN60801/IDN60801.95704.json